sensor_id;sensor_type;location;lat;lon;timestamp;temperature;humidity
49503;DHT22;35409;48.776;9.204;2023-03-01T00:01:30;-2.80;99.90
49503;DHT22;35409;48.776;9.204;2023-03-01T00:03:57;-2.80;99.90
49503;DHT22;35409;48.776;9.204;2023-03-01T00:06:23;-2.80;99.90
49503;DHT22;35409;48.776;9.204;2023-03-01T00:08:49;-2.80;99.90
49503;DHT22;35409;48.776;9.204;2023-03-01T00:11:23;-2.80;99.90
49503;DHT22;35409;48.776;9.204;2023-03-01T00:13:51;-2.90;99.90
49503;DHT22;35409;48.776;9.204;2023-03-01T00:16:23;-2.90;99.90
49503;DHT22;35409;48.776;9.204;2023-03-01T00:18:50;-2.90;99.90
49503;DHT22;35409;48.776;9.204;2023-03-01T00:21:16;-2.80;99.90
49503;DHT22;35409;48.776;9.204;2023-03-01T00:23:42;-2.80;99.90
49503;DHT22;35409;48.776;9.204;2023-03-01T00:26:10;-2.80;99.90
49503;DHT22;35409;48.776;9.204;2023-03-01T00:28:37;-2.80;99.90
49503;DHT22;35409;48.776;9.204;2023-03-01T00:31:08;-2.90;99.90
49503;DHT22;35409;48.776;9.204;2023-03-01T00:33:34;-2.90;99.90
49503;DHT22;35409;48.776;9.204;2023-03-01T00:36:01;-2.90;99.90
49503;DHT22;35409;48.776;9.204;2023-03-01T00:38:26;-2.90;99.90
49503;DHT22;35409;48.776;9.204;2023-03-01T00:40:52;-3.00;99.90
49503;DHT22;35409;48.776;9.204;2023-03-01T00:43:18;-3.00;99.90
49503;DHT22;35409;48.776;9.204;2023-03-01T00:45:44;-3.00;99.90
49503;DHT22;35409;48.776;9.204;2023-03-01T00:48:10;-3.20;99.90
49503;DHT22;35409;48.776;9.204;2023-03-01T00:50:36;-3.20;99.90
49503;DHT22;35409;48.776;9.204;2023-03-01T00:53:02;-3.20;99.90
49503;DHT22;35409;48.776;9.204;2023-03-01T00:55:27;-3.20;99.90
49503;DHT22;35409;48.776;9.204;2023-03-01T00:57:53;-3.20;99.90
49503;DHT22;35409;48.776;9.204;2023-03-01T01:00:19;-3.10;99.90
49503;DHT22;35409;48.776;9.204;2023-03-01T01:02:45;-3.10;99.90
49503;DHT22;35409;48.776;9.204;2023-03-01T01:05:11;-3.10;99.90
49503;DHT22;35409;48.776;9.204;2023-03-01T01:07:40;-3.20;99.90
49503;DHT22;35409;48.776;9.204;2023-03-01T01:10:06;-3.20;99.90
49503;DHT22;35409;48.776;9.204;2023-03-01T01:12:35;-3.20;99.90
49503;DHT22;35409;48.776;9.204;2023-03-01T01:15:01;-3.30;99.90
49503;DHT22;35409;48.776;9.204;2023-03-01T01:17:26;-3.30;99.90
49503;DHT22;35409;48.776;9.204;2023-03-01T01:19:52;-3.20;99.90
49503;DHT22;35409;48.776;9.204;2023-03-01T01:22:17;-3.40;99.90
49503;DHT22;35409;48.776;9.204;2023-03-01T01:24:43;-3.30;99.90
49503;DHT22;35409;48.776;9.204;2023-03-01T01:27:08;-3.40;99.90
49503;DHT22;35409;48.776;9.204;2023-03-01T01:29:34;-3.40;99.90
49503;DHT22;35409;48.776;9.204;2023-03-01T01:31:59;-3.40;99.90
49503;DHT22;35409;48.776;9.204;2023-03-01T01:34:25;-3.40;99.90
49503;DHT22;35409;48.776;9.204;2023-03-01T01:36:52;-3.40;99.90
49503;DHT22;35409;48.776;9.204;2023-03-01T01:39:22;-3.40;99.90
49503;DHT22;35409;48.776;9.204;2023-03-01T01:41:47;-3.40;99.90
49503;DHT22;35409;48.776;9.204;2023-03-01T01:47:07;-3.40;99.90
49503;DHT22;35409;48.776;9.204;2023-03-01T01:49:43;-3.30;99.90
49503;DHT22;35409;48.776;9.204;2023-03-01T01:54:57;-3.20;99.90
49503;DHT22;35409;48.776;9.204;2023-03-01T01:57:33;-3.10;99.90
49503;DHT22;35409;48.776;9.204;2023-03-01T02:00:03;-3.00;99.90
49503;DHT22;35409;48.776;9.204;2023-03-01T02:02:29;-2.90;99.90
49503;DHT22;35409;48.776;9.204;2023-03-01T02:05:58;-2.90;99.90
49503;DHT22;35409;48.776;9.204;2023-03-01T02:08:04;-2.80;99.90
49503;DHT22;35409;48.776;9.204;2023-03-01T02:10:32;-2.80;99.90
49503;DHT22;35409;48.776;9.204;2023-03-01T02:13:01;-2.70;99.90
49503;DHT22;35409;48.776;9.204;2023-03-01T02:15:32;-2.60;99.90
49503;DHT22;35409;48.776;9.204;2023-03-01T02:17:58;-2.50;99.90
49503;DHT22;35409;48.776;9.204;2023-03-01T02:20:42;-2.40;99.90
49503;DHT22;35409;48.776;9.204;2023-03-01T02:23:10;-2.40;99.90
49503;DHT22;35409;48.776;9.204;2023-03-01T02:25:52;-2.30;99.90
49503;DHT22;35409;48.776;9.204;2023-03-01T02:30:54;-2.10;99.90
49503;DHT22;35409;48.776;9.204;2023-03-01T02:33:39;-2.10;99.90
49503;DHT22;35409;48.776;9.204;2023-03-01T02:36:12;-2.10;99.90
49503;DHT22;35409;48.776;9.204;2023-03-01T02:38:40;-2.00;99.90
49503;DHT22;35409;48.776;9.204;2023-03-01T02:41:08;-1.90;99.90
49503;DHT22;35409;48.776;9.204;2023-03-01T02:43:34;-1.80;99.90
49503;DHT22;35409;48.776;9.204;2023-03-01T02:46:06;-1.80;99.90
49503;DHT22;35409;48.776;9.204;2023-03-01T02:48:44;-1.80;99.90
49503;DHT22;35409;48.776;9.204;2023-03-01T02:56:14;-1.70;99.90
49503;DHT22;35409;48.776;9.204;2023-03-01T02:58:41;-1.60;99.90
49503;DHT22;35409;48.776;9.204;2023-03-01T03:01:14;-1.60;99.90
49503;DHT22;35409;48.776;9.204;2023-03-01T03:03:41;-1.60;99.90
49503;DHT22;35409;48.776;9.204;2023-03-01T03:06:07;-1.60;99.90
49503;DHT22;35409;48.776;9.204;2023-03-01T03:08:33;-1.50;99.90
49503;DHT22;35409;48.776;9.204;2023-03-01T03:10:58;-1.50;99.90
49503;DHT22;35409;48.776;9.204;2023-03-01T03:13:24;-1.50;99.90
49503;DHT22;35409;48.776;9.204;2023-03-01T03:15:55;-1.50;99.90
49503;DHT22;35409;48.776;9.204;2023-03-01T03:18:23;-1.40;99.90
49503;DHT22;35409;48.776;9.204;2023-03-01T03:20:52;-1.40;99.90
49503;DHT22;35409;48.776;9.204;2023-03-01T03:23:22;-1.40;99.90
49503;DHT22;35409;48.776;9.204;2023-03-01T03:25:49;-1.40;99.90
49503;DHT22;35409;48.776;9.204;2023-03-01T03:28:15;-1.40;99.90
49503;DHT22;35409;48.776;9.204;2023-03-01T03:30:42;-1.40;99.90
49503;DHT22;35409;48.776;9.204;2023-03-01T03:33:11;-1.40;99.90
49503;DHT22;35409;48.776;9.204;2023-03-01T03:35:47;-1.40;99.90
49503;DHT22;35409;48.776;9.204;2023-03-01T03:38:15;-1.40;99.90
49503;DHT22;35409;48.776;9.204;2023-03-01T03:40:46;-1.30;99.90
49503;DHT22;35409;48.776;9.204;2023-03-01T03:43:18;-1.30;99.90
49503;DHT22;35409;48.776;9.204;2023-03-01T03:45:45;-1.30;99.90
49503;DHT22;35409;48.776;9.204;2023-03-01T03:48:11;-1.30;99.90
49503;DHT22;35409;48.776;9.204;2023-03-01T03:50:38;-1.30;99.90
49503;DHT22;35409;48.776;9.204;2023-03-01T03:53:06;-1.20;99.90
49503;DHT22;35409;48.776;9.204;2023-03-01T03:55:32;-1.20;99.90
49503;DHT22;35409;48.776;9.204;2023-03-01T03:58:00;-1.20;99.90
49503;DHT22;35409;48.776;9.204;2023-03-01T04:00:33;-1.20;99.90
49503;DHT22;35409;48.776;9.204;2023-03-01T04:02:58;-1.20;99.90
49503;DHT22;35409;48.776;9.204;2023-03-01T04:05:24;-1.10;99.90
49503;DHT22;35409;48.776;9.204;2023-03-01T04:07:50;-1.10;99.90
49503;DHT22;35409;48.776;9.204;2023-03-01T04:10:27;-1.10;99.90
49503;DHT22;35409;48.776;9.204;2023-03-01T04:12:53;-1.10;99.90
49503;DHT22;35409;48.776;9.204;2023-03-01T04:15:18;-1.10;99.90
49503;DHT22;35409;48.776;9.204;2023-03-01T04:17:46;-1.10;99.90
49503;DHT22;35409;48.776;9.204;2023-03-01T04:20:17;-1.00;99.90
49503;DHT22;35409;48.776;9.204;2023-03-01T04:22:44;-1.00;99.90
49503;DHT22;35409;48.776;9.204;2023-03-01T04:25:12;-1.00;99.90
49503;DHT22;35409;48.776;9.204;2023-03-01T04:27:39;-1.10;99.90
49503;DHT22;35409;48.776;9.204;2023-03-01T04:30:06;-1.10;99.90
49503;DHT22;35409;48.776;9.204;2023-03-01T04:32:32;-1.00;99.90
49503;DHT22;35409;48.776;9.204;2023-03-01T04:34:58;-1.10;99.90
49503;DHT22;35409;48.776;9.204;2023-03-01T04:37:23;-1.00;99.90
49503;DHT22;35409;48.776;9.204;2023-03-01T04:39:49;-1.00;99.90
49503;DHT22;35409;48.776;9.204;2023-03-01T04:42:15;-0.90;99.90
49503;DHT22;35409;48.776;9.204;2023-03-01T04:44:42;-0.80;99.90
49503;DHT22;35409;48.776;9.204;2023-03-01T04:47:08;-0.70;99.90
49503;DHT22;35409;48.776;9.204;2023-03-01T04:49:33;-0.60;99.90
49503;DHT22;35409;48.776;9.204;2023-03-01T04:51:59;-0.60;99.90
49503;DHT22;35409;48.776;9.204;2023-03-01T04:54:31;-0.60;99.90
49503;DHT22;35409;48.776;9.204;2023-03-01T04:56:57;-0.60;99.90
49503;DHT22;35409;48.776;9.204;2023-03-01T04:59:22;-0.60;99.90
49503;DHT22;35409;48.776;9.204;2023-03-01T05:01:49;-0.60;99.90
49503;DHT22;35409;48.776;9.204;2023-03-01T05:04:15;-0.60;99.90
49503;DHT22;35409;48.776;9.204;2023-03-01T05:06:40;-0.60;99.90
49503;DHT22;35409;48.776;9.204;2023-03-01T05:09:06;-0.40;99.90
49503;DHT22;35409;48.776;9.204;2023-03-01T05:11:32;-0.40;99.90
49503;DHT22;35409;48.776;9.204;2023-03-01T05:14:05;-0.50;99.90
49503;DHT22;35409;48.776;9.204;2023-03-01T05:16:31;-0.50;99.90
49503;DHT22;35409;48.776;9.204;2023-03-01T05:18:58;-0.50;99.90
49503;DHT22;35409;48.776;9.204;2023-03-01T05:21:24;-0.50;99.90
49503;DHT22;35409;48.776;9.204;2023-03-01T05:23:50;-0.50;99.90
49503;DHT22;35409;48.776;9.204;2023-03-01T05:26:17;-0.40;99.90
49503;DHT22;35409;48.776;9.204;2023-03-01T05:28:43;-0.50;99.90
49503;DHT22;35409;48.776;9.204;2023-03-01T05:31:09;-0.40;99.90
49503;DHT22;35409;48.776;9.204;2023-03-01T05:33:39;-0.30;99.90
49503;DHT22;35409;48.776;9.204;2023-03-01T05:36:06;-0.30;99.90
49503;DHT22;35409;48.776;9.204;2023-03-01T05:38:32;-0.30;99.90
49503;DHT22;35409;48.776;9.204;2023-03-01T05:40:58;-0.30;99.90
49503;DHT22;35409;48.776;9.204;2023-03-01T05:43:23;-0.20;99.90
49503;DHT22;35409;48.776;9.204;2023-03-01T05:45:49;-0.30;99.90
49503;DHT22;35409;48.776;9.204;2023-03-01T05:48:14;-0.30;99.90
49503;DHT22;35409;48.776;9.204;2023-03-01T05:50:43;-0.30;99.90
49503;DHT22;35409;48.776;9.204;2023-03-01T05:53:14;-0.10;99.90
49503;DHT22;35409;48.776;9.204;2023-03-01T05:55:41;-0.10;99.90
49503;DHT22;35409;48.776;9.204;2023-03-01T05:58:12;-0.10;99.90
49503;DHT22;35409;48.776;9.204;2023-03-01T06:00:39;-0.20;99.90
49503;DHT22;35409;48.776;9.204;2023-03-01T06:03:05;-0.10;99.90
49503;DHT22;35409;48.776;9.204;2023-03-01T06:05:31;-0.10;99.90
49503;DHT22;35409;48.776;9.204;2023-03-01T06:08:00;-0.20;99.90
49503;DHT22;35409;48.776;9.204;2023-03-01T06:10:26;-0.20;99.90
49503;DHT22;35409;48.776;9.204;2023-03-01T06:12:52;-0.30;99.90
49503;DHT22;35409;48.776;9.204;2023-03-01T06:15:18;-0.30;99.90
49503;DHT22;35409;48.776;9.204;2023-03-01T06:17:45;-0.40;99.90
49503;DHT22;35409;48.776;9.204;2023-03-01T06:20:18;-0.40;99.90
49503;DHT22;35409;48.776;9.204;2023-03-01T06:22:45;-0.40;99.90
49503;DHT22;35409;48.776;9.204;2023-03-01T06:25:13;-0.40;99.90
49503;DHT22;35409;48.776;9.204;2023-03-01T06:27:39;-0.40;99.90
49503;DHT22;35409;48.776;9.204;2023-03-01T06:30:05;-0.40;99.90
49503;DHT22;35409;48.776;9.204;2023-03-01T06:32:32;-0.30;99.90
49503;DHT22;35409;48.776;9.204;2023-03-01T06:34:57;-0.20;99.90
49503;DHT22;35409;48.776;9.204;2023-03-01T06:37:24;-0.20;99.90
49503;DHT22;35409;48.776;9.204;2023-03-01T06:39:50;-0.20;99.90
49503;DHT22;35409;48.776;9.204;2023-03-01T06:42:15;-0.20;99.90
49503;DHT22;35409;48.776;9.204;2023-03-01T06:44:41;-0.10;99.90
49503;DHT22;35409;48.776;9.204;2023-03-01T06:47:07;-0.10;99.90
49503;DHT22;35409;48.776;9.204;2023-03-01T06:49:33;-0.10;99.90
49503;DHT22;35409;48.776;9.204;2023-03-01T06:51:58;0.10;99.90
49503;DHT22;35409;48.776;9.204;2023-03-01T06:54:24;0.30;99.90
49503;DHT22;35409;48.776;9.204;2023-03-01T06:56:50;0.20;99.90
49503;DHT22;35409;48.776;9.204;2023-03-01T06:59:16;0.20;99.90
49503;DHT22;35409;48.776;9.204;2023-03-01T07:01:42;0.30;99.90
49503;DHT22;35409;48.776;9.204;2023-03-01T07:04:09;0.30;99.90
49503;DHT22;35409;48.776;9.204;2023-03-01T07:06:35;0.30;99.90
49503;DHT22;35409;48.776;9.204;2023-03-01T07:09:00;0.30;99.90
49503;DHT22;35409;48.776;9.204;2023-03-01T07:11:26;0.30;99.90
49503;DHT22;35409;48.776;9.204;2023-03-01T07:13:51;0.30;99.90
49503;DHT22;35409;48.776;9.204;2023-03-01T07:16:17;0.20;99.90
49503;DHT22;35409;48.776;9.204;2023-03-01T07:18:43;0.10;99.90
49503;DHT22;35409;48.776;9.204;2023-03-01T07:21:11;0.00;99.90
49503;DHT22;35409;48.776;9.204;2023-03-01T07:23:37;-0.10;99.90
49503;DHT22;35409;48.776;9.204;2023-03-01T07:26:03;-0.10;99.90
49503;DHT22;35409;48.776;9.204;2023-03-01T07:28:29;-0.10;99.90
49503;DHT22;35409;48.776;9.204;2023-03-01T07:31:00;-0.10;99.90
49503;DHT22;35409;48.776;9.204;2023-03-01T07:33:26;0.00;99.90
49503;DHT22;35409;48.776;9.204;2023-03-01T07:36:00;0.00;99.90
49503;DHT22;35409;48.776;9.204;2023-03-01T07:38:27;0.00;99.90
49503;DHT22;35409;48.776;9.204;2023-03-01T07:40:53;0.00;99.90
49503;DHT22;35409;48.776;9.204;2023-03-01T07:43:19;0.10;99.90
49503;DHT22;35409;48.776;9.204;2023-03-01T07:45:46;0.10;99.90
49503;DHT22;35409;48.776;9.204;2023-03-01T07:48:11;0.00;99.90
49503;DHT22;35409;48.776;9.204;2023-03-01T07:50:37;0.10;99.90
49503;DHT22;35409;48.776;9.204;2023-03-01T07:53:02;0.10;99.90
49503;DHT22;35409;48.776;9.204;2023-03-01T07:55:28;0.20;99.90
49503;DHT22;35409;48.776;9.204;2023-03-01T07:57:53;0.30;99.90
49503;DHT22;35409;48.776;9.204;2023-03-01T08:00:19;0.30;99.90
49503;DHT22;35409;48.776;9.204;2023-03-01T08:02:45;0.30;99.90
49503;DHT22;35409;48.776;9.204;2023-03-01T08:05:11;0.40;99.90
49503;DHT22;35409;48.776;9.204;2023-03-01T08:07:36;0.40;99.90
49503;DHT22;35409;48.776;9.204;2023-03-01T08:10:02;0.40;99.90
49503;DHT22;35409;48.776;9.204;2023-03-01T08:12:28;0.40;99.90
49503;DHT22;35409;48.776;9.204;2023-03-01T08:14:54;0.50;99.90
49503;DHT22;35409;48.776;9.204;2023-03-01T08:17:20;0.60;99.90
49503;DHT22;35409;48.776;9.204;2023-03-01T08:19:46;0.70;99.90
49503;DHT22;35409;48.776;9.204;2023-03-01T08:22:11;0.70;99.90
49503;DHT22;35409;48.776;9.204;2023-03-01T10:24:15;4.00;99.90
49503;DHT22;35409;48.776;9.204;2023-03-01T10:26:58;4.00;99.90
49503;DHT22;35409;48.776;9.204;2023-03-01T10:29:34;4.10;99.90
49503;DHT22;35409;48.776;9.204;2023-03-01T10:32:03;4.20;99.90
49503;DHT22;35409;48.776;9.204;2023-03-01T10:34:33;4.20;99.90
49503;DHT22;35409;48.776;9.204;2023-03-01T10:37:15;4.20;99.90
49503;DHT22;35409;48.776;9.204;2023-03-01T10:42:29;4.30;99.90
49503;DHT22;35409;48.776;9.204;2023-03-01T10:44:55;4.40;99.90
49503;DHT22;35409;48.776;9.204;2023-03-01T10:47:23;4.50;99.90
49503;DHT22;35409;48.776;9.204;2023-03-01T10:52:27;4.60;99.90
49503;DHT22;35409;48.776;9.204;2023-03-01T10:54:58;4.70;99.90
49503;DHT22;35409;48.776;9.204;2023-03-01T10:57:43;4.80;99.90
49503;DHT22;35409;48.776;9.204;2023-03-01T11:02:47;4.90;99.90
49503;DHT22;35409;48.776;9.204;2023-03-01T11:07:48;5.10;99.90
49503;DHT22;35409;48.776;9.204;2023-03-01T11:12:44;5.30;99.90
49503;DHT22;35409;48.776;9.204;2023-03-01T11:15:22;5.40;99.90
49503;DHT22;35409;48.776;9.204;2023-03-01T11:17:47;5.40;99.90
49503;DHT22;35409;48.776;9.204;2023-03-01T11:22:52;5.60;99.90
49503;DHT22;35409;48.776;9.204;2023-03-01T11:25:24;5.70;99.60
49503;DHT22;35409;48.776;9.204;2023-03-01T11:27:50;5.90;99.50
49503;DHT22;35409;48.776;9.204;2023-03-01T11:30:29;6.00;99.00
49503;DHT22;35409;48.776;9.204;2023-03-01T11:35:36;6.20;98.10
49503;DHT22;35409;48.776;9.204;2023-03-01T11:38:16;6.20;98.10
49503;DHT22;35409;48.776;9.204;2023-03-01T11:40:52;6.10;98.10
49503;DHT22;35409;48.776;9.204;2023-03-01T11:43:49;6.20;98.20
49503;DHT22;35409;48.776;9.204;2023-03-01T11:54:20;6.20;98.10
49503;DHT22;35409;48.776;9.204;2023-03-01T11:56:55;6.20;97.80
49503;DHT22;35409;48.776;9.204;2023-03-01T11:59:30;6.40;98.90
49503;DHT22;35409;48.776;9.204;2023-03-01T12:10:20;6.80;97.00
49503;DHT22;35409;48.776;9.204;2023-03-01T12:15:31;7.20;96.00
49503;DHT22;35409;48.776;9.204;2023-03-01T12:18:11;7.30;96.50
49503;DHT22;35409;48.776;9.204;2023-03-01T12:32:54;8.90;92.00
49503;DHT22;35409;48.776;9.204;2023-03-01T12:35:11;9.00;91.80
49503;DHT22;35409;48.776;9.204;2023-03-01T12:38:22;9.30;90.60
49503;DHT22;35409;48.776;9.204;2023-03-01T12:43:56;9.10;90.40
49503;DHT22;35409;48.776;9.204;2023-03-01T16:07:52;7.40;90.20
49503;DHT22;35409;48.776;9.204;2023-03-01T16:10:19;7.30;90.40
49503;DHT22;35409;48.776;9.204;2023-03-01T16:12:45;7.20;90.50
49503;DHT22;35409;48.776;9.204;2023-03-01T16:15:29;7.10;90.90
49503;DHT22;35409;48.776;9.204;2023-03-01T16:17:55;7.00;90.90
49503;DHT22;35409;48.776;9.204;2023-03-01T16:20:24;6.90;90.90
49503;DHT22;35409;48.776;9.204;2023-03-01T16:22:50;6.90;91.00
49503;DHT22;35409;48.776;9.204;2023-03-01T16:25:17;6.80;91.20
49503;DHT22;35409;48.776;9.204;2023-03-01T16:27:45;6.80;91.40
49503;DHT22;35409;48.776;9.204;2023-03-01T16:30:13;6.70;91.30
49503;DHT22;35409;48.776;9.204;2023-03-01T16:32:40;6.70;91.50
49503;DHT22;35409;48.776;9.204;2023-03-01T16:35:06;6.60;91.50
49503;DHT22;35409;48.776;9.204;2023-03-01T16:37:34;6.60;91.70
49503;DHT22;35409;48.776;9.204;2023-03-01T16:39:59;6.50;91.90
49503;DHT22;35409;48.776;9.204;2023-03-01T16:42:25;6.50;92.00
49503;DHT22;35409;48.776;9.204;2023-03-01T16:44:55;6.40;92.30
49503;DHT22;35409;48.776;9.204;2023-03-01T16:47:21;6.40;92.40
49503;DHT22;35409;48.776;9.204;2023-03-01T16:49:47;6.30;92.50
49503;DHT22;35409;48.776;9.204;2023-03-01T16:52:12;6.30;92.60
49503;DHT22;35409;48.776;9.204;2023-03-01T16:54:38;6.20;93.00
49503;DHT22;35409;48.776;9.204;2023-03-01T16:57:04;6.10;93.00
49503;DHT22;35409;48.776;9.204;2023-03-01T16:59:30;6.10;93.00
49503;DHT22;35409;48.776;9.204;2023-03-01T17:01:56;6.10;93.10
49503;DHT22;35409;48.776;9.204;2023-03-01T17:04:21;6.00;93.40
49503;DHT22;35409;48.776;9.204;2023-03-01T17:06:47;5.90;93.60
49503;DHT22;35409;48.776;9.204;2023-03-01T17:09:13;5.80;93.90
49503;DHT22;35409;48.776;9.204;2023-03-01T17:11:39;5.80;94.20
49503;DHT22;35409;48.776;9.204;2023-03-01T17:14:05;5.70;94.30
49503;DHT22;35409;48.776;9.204;2023-03-01T17:16:30;5.60;94.90
49503;DHT22;35409;48.776;9.204;2023-03-01T17:18:56;5.50;95.00
49503;DHT22;35409;48.776;9.204;2023-03-01T17:23:48;5.20;95.60
49503;DHT22;35409;48.776;9.204;2023-03-01T17:26:15;5.10;96.40
49503;DHT22;35409;48.776;9.204;2023-03-01T17:28:41;4.90;96.80
49503;DHT22;35409;48.776;9.204;2023-03-01T17:31:08;4.80;97.40
49503;DHT22;35409;48.776;9.204;2023-03-01T17:33:34;4.70;98.20
49503;DHT22;35409;48.776;9.204;2023-03-01T17:36:00;4.60;98.70
49503;DHT22;35409;48.776;9.204;2023-03-01T17:38:26;4.40;99.40
49503;DHT22;35409;48.776;9.204;2023-03-01T17:40:52;4.30;99.90
49503;DHT22;35409;48.776;9.204;2023-03-01T17:43:17;4.20;99.90
49503;DHT22;35409;48.776;9.204;2023-03-01T18:22:31;2.80;99.90
49503;DHT22;35409;48.776;9.204;2023-03-01T18:24:57;2.80;99.90
49503;DHT22;35409;48.776;9.204;2023-03-01T18:27:24;2.60;99.90
49503;DHT22;35409;48.776;9.204;2023-03-01T18:29:50;2.50;99.90
49503;DHT22;35409;48.776;9.204;2023-03-01T18:32:16;2.40;99.90
49503;DHT22;35409;48.776;9.204;2023-03-01T18:34:41;2.40;99.90
49503;DHT22;35409;48.776;9.204;2023-03-01T18:37:07;2.30;99.90
49503;DHT22;35409;48.776;9.204;2023-03-01T18:39:33;2.20;99.90
49503;DHT22;35409;48.776;9.204;2023-03-01T18:41:59;2.20;99.90
49503;DHT22;35409;48.776;9.204;2023-03-01T18:44:25;2.10;99.90
49503;DHT22;35409;48.776;9.204;2023-03-01T18:46:50;2.00;99.90
49503;DHT22;35409;48.776;9.204;2023-03-01T18:49:17;2.00;99.90
49503;DHT22;35409;48.776;9.204;2023-03-01T18:51:43;1.90;99.90
49503;DHT22;35409;48.776;9.204;2023-03-01T18:54:10;1.80;99.90
49503;DHT22;35409;48.776;9.204;2023-03-01T18:56:36;1.80;99.90
49503;DHT22;35409;48.776;9.204;2023-03-01T18:59:02;1.70;99.90
49503;DHT22;35409;48.776;9.204;2023-03-01T19:01:30;1.70;99.90
49503;DHT22;35409;48.776;9.204;2023-03-01T19:03:56;1.70;99.90
49503;DHT22;35409;48.776;9.204;2023-03-01T19:06:24;1.60;99.90
49503;DHT22;35409;48.776;9.204;2023-03-01T19:08:52;1.60;99.90
49503;DHT22;35409;48.776;9.204;2023-03-01T19:11:18;1.60;99.90
49503;DHT22;35409;48.776;9.204;2023-03-01T19:13:45;1.70;99.90
49503;DHT22;35409;48.776;9.204;2023-03-01T19:16:13;1.70;99.90
49503;DHT22;35409;48.776;9.204;2023-03-01T19:18:42;1.80;99.90
49503;DHT22;35409;48.776;9.204;2023-03-01T19:21:09;1.80;99.90
49503;DHT22;35409;48.776;9.204;2023-03-01T19:23:36;1.80;99.90
49503;DHT22;35409;48.776;9.204;2023-03-01T19:26:11;1.70;99.90
49503;DHT22;35409;48.776;9.204;2023-03-01T19:28:37;1.80;99.90
49503;DHT22;35409;48.776;9.204;2023-03-01T19:31:12;1.80;99.90
49503;DHT22;35409;48.776;9.204;2023-03-01T19:33:38;1.80;99.90
49503;DHT22;35409;48.776;9.204;2023-03-01T19:36:05;1.80;99.90
49503;DHT22;35409;48.776;9.204;2023-03-01T19:38:30;1.80;99.90
49503;DHT22;35409;48.776;9.204;2023-03-01T19:40:56;1.80;99.90
49503;DHT22;35409;48.776;9.204;2023-03-01T19:43:23;1.70;99.90
49503;DHT22;35409;48.776;9.204;2023-03-01T19:45:52;1.70;99.90
49503;DHT22;35409;48.776;9.204;2023-03-01T19:48:18;1.70;99.90
49503;DHT22;35409;48.776;9.204;2023-03-01T19:50:44;1.70;99.90
49503;DHT22;35409;48.776;9.204;2023-03-01T19:53:11;1.60;99.90
49503;DHT22;35409;48.776;9.204;2023-03-01T19:55:37;1.70;99.90
49503;DHT22;35409;48.776;9.204;2023-03-01T19:58:04;1.60;99.90
49503;DHT22;35409;48.776;9.204;2023-03-01T20:00:31;1.60;99.90
49503;DHT22;35409;48.776;9.204;2023-03-01T20:02:57;1.50;99.90
49503;DHT22;35409;48.776;9.204;2023-03-01T20:05:22;1.50;99.90
49503;DHT22;35409;48.776;9.204;2023-03-01T20:07:48;1.50;99.90
49503;DHT22;35409;48.776;9.204;2023-03-01T20:10:15;1.50;99.90
49503;DHT22;35409;48.776;9.204;2023-03-01T20:12:41;1.50;99.90
49503;DHT22;35409;48.776;9.204;2023-03-01T20:15:07;1.50;99.90
49503;DHT22;35409;48.776;9.204;2023-03-01T20:17:33;1.50;99.90
49503;DHT22;35409;48.776;9.204;2023-03-01T20:19:59;1.50;99.90
49503;DHT22;35409;48.776;9.204;2023-03-01T20:22:24;1.60;99.90
49503;DHT22;35409;48.776;9.204;2023-03-01T20:24:50;1.70;99.90
49503;DHT22;35409;48.776;9.204;2023-03-01T20:27:15;1.70;99.90
49503;DHT22;35409;48.776;9.204;2023-03-01T20:29:41;1.70;99.90
49503;DHT22;35409;48.776;9.204;2023-03-01T20:32:07;1.70;99.90
49503;DHT22;35409;48.776;9.204;2023-03-01T20:34:32;1.70;99.90
49503;DHT22;35409;48.776;9.204;2023-03-01T20:37:00;1.80;99.90
49503;DHT22;35409;48.776;9.204;2023-03-01T20:39:27;1.80;99.90
49503;DHT22;35409;48.776;9.204;2023-03-01T20:41:52;1.80;99.90
49503;DHT22;35409;48.776;9.204;2023-03-01T20:44:18;1.80;99.90
49503;DHT22;35409;48.776;9.204;2023-03-01T20:46:43;1.70;99.90
49503;DHT22;35409;48.776;9.204;2023-03-01T20:49:09;1.70;99.90
49503;DHT22;35409;48.776;9.204;2023-03-01T20:51:35;1.60;99.90
49503;DHT22;35409;48.776;9.204;2023-03-01T20:54:01;1.50;99.90
49503;DHT22;35409;48.776;9.204;2023-03-01T20:56:27;1.50;99.90
49503;DHT22;35409;48.776;9.204;2023-03-01T20:58:54;1.40;99.90
49503;DHT22;35409;48.776;9.204;2023-03-01T21:01:22;1.30;99.90
49503;DHT22;35409;48.776;9.204;2023-03-01T21:03:49;1.30;99.90
49503;DHT22;35409;48.776;9.204;2023-03-01T21:06:15;1.30;99.90
49503;DHT22;35409;48.776;9.204;2023-03-01T21:08:41;1.20;99.90
49503;DHT22;35409;48.776;9.204;2023-03-01T21:11:06;1.20;99.90
49503;DHT22;35409;48.776;9.204;2023-03-01T21:13:33;1.20;99.90
49503;DHT22;35409;48.776;9.204;2023-03-01T21:16:04;1.30;99.90
49503;DHT22;35409;48.776;9.204;2023-03-01T21:18:33;1.40;99.90
49503;DHT22;35409;48.776;9.204;2023-03-01T21:21:08;1.40;99.90
49503;DHT22;35409;48.776;9.204;2023-03-01T21:23:35;1.40;99.90
49503;DHT22;35409;48.776;9.204;2023-03-01T21:26:03;1.40;99.90
49503;DHT22;35409;48.776;9.204;2023-03-01T21:28:30;1.40;99.90
49503;DHT22;35409;48.776;9.204;2023-03-01T21:31:11;1.40;99.90
49503;DHT22;35409;48.776;9.204;2023-03-01T21:33:38;1.40;99.90
49503;DHT22;35409;48.776;9.204;2023-03-01T21:36:07;1.30;99.90
49503;DHT22;35409;48.776;9.204;2023-03-01T21:38:35;1.30;99.90
49503;DHT22;35409;48.776;9.204;2023-03-01T21:41:09;1.20;99.90
49503;DHT22;35409;48.776;9.204;2023-03-01T21:43:37;1.10;99.90
49503;DHT22;35409;48.776;9.204;2023-03-01T21:46:04;1.00;99.90
49503;DHT22;35409;48.776;9.204;2023-03-01T23:23:53;0.20;99.90
49503;DHT22;35409;48.776;9.204;2023-03-01T23:26:19;0.20;99.90
49503;DHT22;35409;48.776;9.204;2023-03-01T23:28:47;0.10;99.90
49503;DHT22;35409;48.776;9.204;2023-03-01T23:31:15;0.00;99.90
49503;DHT22;35409;48.776;9.204;2023-03-01T23:33:42;-0.10;99.90
49503;DHT22;35409;48.776;9.204;2023-03-01T23:36:27;-0.10;99.90
49503;DHT22;35409;48.776;9.204;2023-03-01T23:38:56;-0.20;99.90
49503;DHT22;35409;48.776;9.204;2023-03-01T23:41:24;-0.20;99.90
49503;DHT22;35409;48.776;9.204;2023-03-01T23:43:53;-0.30;99.90
49503;DHT22;35409;48.776;9.204;2023-03-01T23:46:21;-0.40;99.90
49503;DHT22;35409;48.776;9.204;2023-03-01T23:48:48;-0.40;99.90
49503;DHT22;35409;48.776;9.204;2023-03-01T23:51:15;-0.40;99.90
49503;DHT22;35409;48.776;9.204;2023-03-01T23:53:44;-0.50;99.90
49503;DHT22;35409;48.776;9.204;2023-03-01T23:56:22;-0.60;99.90
49503;DHT22;35409;48.776;9.204;2023-03-01T23:58:54;-0.70;99.90
